البصرة, العراق

10:52 PM AST on لبراêر 10, 2016 (GMT +0300)
Meteoiraq | | Change Station
CLOSE
Current Station
Personal Weather Stations
Location: Basrah, BASRAH
Elevation: 23 ft
Nearby Weather Stations

Elev 23 ft 30.49 °N, 47.81 °E | Updated 12 minutes ago

Clear
صافية
60.6 °F
Feels Like 60.6 °F
N
0.0
ريح متغير ريح from جنوب

هذا اليوم
High -- | Low -- °F
--% Chance of Precip.
Yesterday
High -- | Low -- °F
Precip. -- في
الضغط 30.04 في
وضوح الرؤية -9999.0 أميال
سحابات
نقطة الندى 42 °F
الرطوبة 51%
Rainfall 0.00 في
عمق الثلج Not available.
6:34 AM 5:32 PM
الهلال الأول, 7% visible
METAR ORMM 101900Z 27006KT CAVOK 15/00 Q1017 NOSIG
الضغط 30.04 في
وضوح الرؤية -9999.0 أميال
سحابات
نقطة الندى 42 °F
الرطوبة 51%
Rainfall 0.00 في
عمق الثلج Not available.
6:34 AM 5:32 PM
الهلال الأول, 7% visible
METAR ORMM 101900Z 27006KT CAVOK 15/00 Q1017 NOSIG

10-Day Weather Forecast

No radar image for this location.
×

Almanac

علم الفلك

Feb. 10, 2016 Rise Set
Actual Time
Civil Twilight
Nautical Twilight
Astronomical Twilight
قمر
Length Of Visible Light
طول الیوم
Tomorrow will be .
, % of the Moon is Illuminated

Today's Extremes

Country Highs Country Lows

Community

WunderPhotos

Upload Photos

1,891,925 photos uploaded!

WunderBlog® & News

Nearby

جودة الهواء

  جودة الهواء AQ Index Pollutant
Not available.

عمق الثلج

Station Depth Elevation

Earthquake Activity

City Distance Mag. Time & Date
Minimum magnitude displayed is 2.5.

Coastal Water Temperatures

مكان درجات الحرارة

Stations

Nearby Weather Stations

Station Location الحرارة رياح باردة نقطة الندى الرطوبة ريح Precip. Elev تحديث Type